createdAt,value
2023-01-20T00:01:49.078Z,8.20
2023-01-20T00:04:20.620Z,8.27
2023-01-20T00:06:49.315Z,8.31
2023-01-20T00:09:18.939Z,8.36
2023-01-20T00:11:47.616Z,8.37
2023-01-20T00:14:16.341Z,8.37
2023-01-20T00:16:44.605Z,8.36
2023-01-20T00:19:14.721Z,8.38
2023-01-20T00:21:43.657Z,8.39
2023-01-20T00:24:12.113Z,8.39
2023-01-20T00:26:40.260Z,8.37
2023-01-20T00:29:09.474Z,8.35
2023-01-20T00:31:38.658Z,8.37
2023-01-20T00:34:06.960Z,8.35
2023-01-20T00:36:35.657Z,8.31
2023-01-20T00:39:05.122Z,8.26
2023-01-20T00:41:33.352Z,8.12
2023-01-20T00:44:01.832Z,8.01
2023-01-20T00:46:30.604Z,7.94
2023-01-20T00:48:58.803Z,7.90
2023-01-20T00:51:26.983Z,7.85
2023-01-20T00:53:56.093Z,7.82
2023-01-20T00:56:25.339Z,7.75
2023-01-20T00:58:55.617Z,7.69
2023-01-20T01:01:24.268Z,7.63
2023-01-20T01:03:54.590Z,7.58
2023-01-20T01:06:23.958Z,7.55
2023-01-20T01:08:53.202Z,7.50
2023-01-20T01:11:21.448Z,7.45
2023-01-20T01:13:49.652Z,7.42
2023-01-20T01:16:18.042Z,7.39
2023-01-20T01:18:46.481Z,7.35
2023-01-20T01:21:17.415Z,7.36
2023-01-20T01:23:45.701Z,7.37
2023-01-20T01:26:14.599Z,7.38
2023-01-20T01:28:43.194Z,7.38
2023-01-20T01:31:11.862Z,7.41
2023-01-20T01:33:40.671Z,7.45
2023-01-20T01:36:13.948Z,7.48
2023-01-20T01:38:42.595Z,7.50
2023-01-20T01:41:13.551Z,7.53
2023-01-20T01:44:05.625Z,7.56
2023-01-20T01:46:35.418Z,7.57
2023-01-20T01:49:10.442Z,7.59
2023-01-20T01:51:46.914Z,7.62
2023-01-20T01:54:24.948Z,7.61
2023-01-20T01:56:54.213Z,7.59
2023-01-20T01:59:22.644Z,7.57
2023-01-20T02:01:52.711Z,7.55
2023-01-20T02:04:24.907Z,7.53
2023-01-20T02:07:19.817Z,7.50
2023-01-20T02:09:48.411Z,7.44
2023-01-20T02:12:20.992Z,7.36
2023-01-20T02:14:53.135Z,7.23
2023-01-20T02:17:30.449Z,7.15
2023-01-20T02:20:07.943Z,7.08
2023-01-20T02:22:42.159Z,7.01
2023-01-20T02:25:10.444Z,6.96
2023-01-20T02:28:16.998Z,6.89
2023-01-20T02:31:07.589Z,6.78
2023-01-20T02:34:05.140Z,6.70
2023-01-20T02:36:36.492Z,6.64
2023-01-20T02:39:13.777Z,6.58
2023-01-20T02:41:56.090Z,6.53
2023-01-20T02:44:29.582Z,6.49
2023-01-20T02:47:06.972Z,6.47
2023-01-20T02:49:50.910Z,6.43
2023-01-20T02:52:24.928Z,6.42
2023-01-20T02:54:57.604Z,6.44
2023-01-20T02:57:31.108Z,6.47
2023-01-20T03:00:07.988Z,6.52
2023-01-20T03:02:40.279Z,6.56
2023-01-20T03:05:14.656Z,6.59
2023-01-20T03:07:44.884Z,6.67
2023-01-20T03:10:18.880Z,6.73
2023-01-20T03:12:50.270Z,6.78
2023-01-20T03:15:24.800Z,6.83
2023-01-20T03:17:53.078Z,6.91
2023-01-20T03:20:21.258Z,6.98
2023-01-20T03:22:50.063Z,7.05
2023-01-20T03:25:20.475Z,7.11
2023-01-20T03:27:49.581Z,7.15
2023-01-20T03:30:18.442Z,7.16
2023-01-20T03:32:50.075Z,7.17
2023-01-20T03:35:19.069Z,7.20
2023-01-20T03:37:47.529Z,7.24
2023-01-20T03:40:16.375Z,7.27
2023-01-20T03:42:57.604Z,7.34
2023-01-20T03:45:59.709Z,7.36
2023-01-20T03:49:01.385Z,7.40
2023-01-20T03:51:41.242Z,7.41
2023-01-20T03:54:12.788Z,7.43
2023-01-20T03:56:43.836Z,7.46
2023-01-20T03:59:14.791Z,7.46
2023-01-20T04:01:45.301Z,7.47
2023-01-20T04:04:19.867Z,7.47
2023-01-20T04:06:51.296Z,7.47
2023-01-20T04:09:29.278Z,7.46
2023-01-20T04:11:58.915Z,7.43
2023-01-20T04:14:27.190Z,7.39
2023-01-20T04:16:59.324Z,7.35
2023-01-20T04:19:27.641Z,7.34
2023-01-20T04:22:17.820Z,7.35
2023-01-20T04:24:58.537Z,7.34
2023-01-20T04:27:26.970Z,7.34
2023-01-20T04:29:55.485Z,7.37
2023-01-20T04:32:24.153Z,7.41
2023-01-20T04:34:53.657Z,7.47
2023-01-20T04:37:22.059Z,7.52
2023-01-20T04:39:50.232Z,7.57
2023-01-20T04:42:18.402Z,7.62
2023-01-20T04:44:46.994Z,7.67
2023-01-20T04:47:15.273Z,7.74
2023-01-20T04:49:43.557Z,7.83
2023-01-20T04:52:11.953Z,7.93
2023-01-20T04:54:40.425Z,8.05
2023-01-20T04:57:08.916Z,8.18
2023-01-20T04:59:37.406Z,8.29
2023-01-20T05:02:05.809Z,8.35
2023-01-20T05:04:34.169Z,8.39
2023-01-20T05:07:02.556Z,8.42
2023-01-20T05:09:30.835Z,8.42
2023-01-20T05:11:59.833Z,8.42
2023-01-20T05:14:28.229Z,8.40
2023-01-20T05:16:56.701Z,8.38
2023-01-20T05:19:25.089Z,8.38
2023-01-20T05:21:53.268Z,8.39
2023-01-20T05:24:21.857Z,8.36
2023-01-20T05:26:50.444Z,8.33
2023-01-20T05:29:18.935Z,8.28
2023-01-20T05:31:47.394Z,8.20
2023-01-20T05:34:16.828Z,8.11
2023-01-20T05:36:45.214Z,8.05
2023-01-20T05:39:13.287Z,7.99
2023-01-20T05:41:41.979Z,7.97
2023-01-20T05:44:10.365Z,7.98
2023-01-20T05:46:39.113Z,7.98
2023-01-20T05:49:07.642Z,7.98
2023-01-20T05:51:36.028Z,7.96
2023-01-20T05:54:04.707Z,7.94
2023-01-20T05:56:33.106Z,7.92
2023-01-20T05:59:02.271Z,7.90
2023-01-20T06:01:30.526Z,7.88
2023-01-20T06:03:58.886Z,7.86
2023-01-20T06:06:27.253Z,7.83
2023-01-20T06:08:55.537Z,7.81
2023-01-20T06:11:24.148Z,7.82
2023-01-20T06:13:52.482Z,7.81
2023-01-20T06:16:21.246Z,7.81
2023-01-20T06:18:49.486Z,7.80
2023-01-20T06:21:17.870Z,7.79
2023-01-20T06:23:46.260Z,7.79
2023-01-20T06:26:15.153Z,7.80
2023-01-20T06:28:45.305Z,7.80
2023-01-20T06:31:16.814Z,7.81
2023-01-20T06:33:45.241Z,7.82
2023-01-20T06:36:15.958Z,7.84
2023-01-20T06:38:48.659Z,7.87
2023-01-20T06:41:19.368Z,7.91
2023-01-20T06:43:47.959Z,7.94
2023-01-20T06:46:16.834Z,7.98
2023-01-20T06:48:46.161Z,8.02
2023-01-20T06:51:20.302Z,8.04
2023-01-20T06:53:48.666Z,8.05
2023-01-20T06:56:17.556Z,8.11
2023-01-20T06:58:46.262Z,8.16
2023-01-20T07:01:26.425Z,8.18
2023-01-20T07:03:56.091Z,8.25
2023-01-20T07:06:38.499Z,8.31
2023-01-20T07:09:15.708Z,8.38
2023-01-20T07:11:44.710Z,8.46
2023-01-20T07:14:13.088Z,8.56
2023-01-20T07:16:41.300Z,8.65
2023-01-20T07:19:09.858Z,8.72
2023-01-20T07:21:38.140Z,8.87
2023-01-20T07:24:06.991Z,8.98
2023-01-20T07:26:35.526Z,9.06
2023-01-20T07:29:04.219Z,9.14
2023-01-20T07:31:34.501Z,9.21
2023-01-20T07:34:03.280Z,9.29
2023-01-20T07:36:31.864Z,9.35
2023-01-20T07:39:00.135Z,9.41
2023-01-20T07:41:28.386Z,9.46
2023-01-20T07:43:56.980Z,9.48
2023-01-20T07:46:25.463Z,9.50
2023-01-20T07:48:53.652Z,9.54
2023-01-20T07:51:21.931Z,9.53
2023-01-20T07:53:52.186Z,9.53
2023-01-20T07:56:23.439Z,9.55
2023-01-20T07:58:53.758Z,9.58
2023-01-20T08:01:24.931Z,9.59
2023-01-20T08:03:53.972Z,9.62
2023-01-20T08:06:25.018Z,9.68
2023-01-20T08:08:54.405Z,9.72
2023-01-20T08:11:23.019Z,9.78
2023-01-20T08:13:51.820Z,9.83
2023-01-20T08:16:20.311Z,9.89
2023-01-20T08:18:49.769Z,9.96
2023-01-20T08:21:24.331Z,10.02
2023-01-20T08:23:55.798Z,10.10
2023-01-20T08:26:25.356Z,10.21
2023-01-20T08:28:54.509Z,10.35
2023-01-20T08:31:24.924Z,10.52
2023-01-20T08:33:55.044Z,10.69
2023-01-20T08:36:29.985Z,10.95
2023-01-20T08:39:02.806Z,11.13
2023-01-20T08:41:34.431Z,11.30
2023-01-20T08:44:06.502Z,11.52
2023-01-20T08:46:36.015Z,11.84
2023-01-20T08:49:16.994Z,12.19
2023-01-20T08:51:45.405Z,12.74
2023-01-20T08:54:15.112Z,13.40
2023-01-20T08:56:43.477Z,13.81
2023-01-20T08:59:12.489Z,13.90
2023-01-20T09:01:42.312Z,14.48
2023-01-20T09:04:11.176Z,15.04
2023-01-20T09:06:40.800Z,15.58
2023-01-20T09:09:09.661Z,16.18
2023-01-20T09:11:39.965Z,16.64
2023-01-20T09:14:08.403Z,17.15
2023-01-20T09:16:36.684Z,17.78
2023-01-20T09:19:04.959Z,18.08
2023-01-20T09:21:33.252Z,18.47
2023-01-20T09:24:01.424Z,18.92
2023-01-20T09:26:38.483Z,19.37
2023-01-20T09:29:10.886Z,19.68
2023-01-20T09:31:44.675Z,20.03
2023-01-20T09:34:19.651Z,20.35
2023-01-20T09:36:53.331Z,20.50
2023-01-20T09:39:40.954Z,20.99
2023-01-20T09:42:51.742Z,21.44
2023-01-20T09:45:25.734Z,21.21
2023-01-20T09:48:15.197Z,21.07
2023-01-20T09:51:16.005Z,21.35
2023-01-20T09:53:44.387Z,21.56
2023-01-20T09:56:17.089Z,21.45
2023-01-20T09:58:53.544Z,21.13
2023-01-20T10:01:43.910Z,20.87
2023-01-20T10:04:12.417Z,20.59
2023-01-20T10:06:46.229Z,20.33
2023-01-20T10:09:42.138Z,19.94
2023-01-20T10:12:18.677Z,19.34
2023-01-20T10:14:55.290Z,18.89
2023-01-20T10:17:39.214Z,18.48
2023-01-20T10:20:10.740Z,18.18
2023-01-20T10:22:41.818Z,17.85
2023-01-20T10:25:17.671Z,17.61
2023-01-20T10:28:19.206Z,17.40
2023-01-20T10:30:48.519Z,17.24
2023-01-20T10:33:29.243Z,17.07
2023-01-20T10:36:00.024Z,16.84
2023-01-20T10:38:54.093Z,16.72
2023-01-20T10:41:33.647Z,16.65
2023-01-20T10:44:04.366Z,16.61
2023-01-20T10:46:51.859Z,16.66
2023-01-20T10:49:40.186Z,16.84
2023-01-20T10:52:40.127Z,17.37
2023-01-20T10:55:50.273Z,17.51
2023-01-20T10:58:25.720Z,17.55
2023-01-20T11:00:55.518Z,17.45
2023-01-20T11:03:25.636Z,17.34
2023-01-20T11:05:54.455Z,17.19
2023-01-20T11:08:27.442Z,16.98
2023-01-20T11:11:00.330Z,16.86
2023-01-20T11:13:28.526Z,16.74
2023-01-20T11:16:02.756Z,16.55
2023-01-20T11:18:32.227Z,16.33
2023-01-20T11:21:10.137Z,16.21
2023-01-20T11:23:53.455Z,16.10
2023-01-20T11:26:33.430Z,15.89
2023-01-20T11:29:29.098Z,15.86
2023-01-20T11:31:59.838Z,15.85
2023-01-20T11:34:48.610Z,15.83
2023-01-20T11:37:25.777Z,15.85
2023-01-20T11:40:00.770Z,15.87
2023-01-20T11:42:45.064Z,15.87
2023-01-20T11:45:27.265Z,15.91
2023-01-20T11:48:03.430Z,15.89
2023-01-20T11:51:02.099Z,15.86
2023-01-20T11:53:32.838Z,15.88
2023-01-20T11:56:06.059Z,15.84
2023-01-20T11:58:51.639Z,15.81
2023-01-20T12:01:24.954Z,15.79
2023-01-20T12:04:31.521Z,15.78
2023-01-20T12:07:05.678Z,15.77
2023-01-20T12:09:42.128Z,15.80
2023-01-20T12:12:13.405Z,15.84
2023-01-20T12:15:15.550Z,15.94
2023-01-20T12:17:56.319Z,16.19
2023-01-20T12:20:53.173Z,16.42
2023-01-20T12:23:46.081Z,16.69
2023-01-20T12:26:17.354Z,16.84
2023-01-20T12:29:02.619Z,16.88
2023-01-20T12:31:32.846Z,16.95
2023-01-20T12:34:05.524Z,17.13
2023-01-20T12:37:02.255Z,17.29
2023-01-20T12:40:09.013Z,17.41
2023-01-20T12:43:03.389Z,17.45
2023-01-20T12:45:47.535Z,17.38
2023-01-20T12:48:28.093Z,17.39
2023-01-20T12:51:24.119Z,17.33
2023-01-20T12:54:48.249Z,17.19
2023-01-20T12:57:45.098Z,16.99
2023-01-20T13:00:32.417Z,16.92
2023-01-20T13:03:38.971Z,16.76
2023-01-20T13:06:37.876Z,16.61
2023-01-20T13:09:31.100Z,16.52
2023-01-20T13:12:24.387Z,16.46
2023-01-20T13:15:02.971Z,16.38
2023-01-20T13:17:34.032Z,16.32
2023-01-20T13:20:04.990Z,16.24
2023-01-20T13:22:34.621Z,16.19
2023-01-20T13:25:05.110Z,16.09
2023-01-20T13:27:37.788Z,15.99
2023-01-20T13:30:08.517Z,15.90
2023-01-20T13:32:43.317Z,15.85
2023-01-20T13:35:18.002Z,15.83
2023-01-20T13:38:01.775Z,15.80
2023-01-20T13:40:33.003Z,15.76
2023-01-20T13:43:02.380Z,15.66
2023-01-20T13:45:30.762Z,15.58
2023-01-20T13:48:08.558Z,15.54
2023-01-20T13:50:42.234Z,15.46
2023-01-20T13:53:10.545Z,15.37
2023-01-20T13:55:44.220Z,15.28
2023-01-20T13:58:33.713Z,15.20
2023-01-20T14:01:05.301Z,15.12
2023-01-20T14:03:37.952Z,15.04
2023-01-20T14:06:12.181Z,14.98
2023-01-20T14:08:43.906Z,14.95
2023-01-20T14:11:13.654Z,14.94
2023-01-20T14:13:51.019Z,14.91
2023-01-20T14:16:23.092Z,14.86
2023-01-20T14:18:54.763Z,14.80
2023-01-20T14:21:26.491Z,14.70
2023-01-20T14:23:54.815Z,14.62
2023-01-20T14:26:27.595Z,14.51
2023-01-20T14:28:58.947Z,14.39
2023-01-20T14:31:45.645Z,14.31
2023-01-20T14:34:26.827Z,14.22
2023-01-20T14:37:01.374Z,14.16
2023-01-20T14:39:30.611Z,14.11
2023-01-20T14:42:00.989Z,14.06
2023-01-20T14:44:35.322Z,14.01
2023-01-20T14:47:04.507Z,13.96
2023-01-20T14:49:36.570Z,13.91
2023-01-20T14:52:12.527Z,13.85
2023-01-20T14:54:46.957Z,13.74
2023-01-20T14:57:20.559Z,13.27
2023-01-20T14:59:59.687Z,12.80
2023-01-20T15:02:33.549Z,12.44
2023-01-20T15:05:02.672Z,11.99
2023-01-20T15:07:30.932Z,11.59
2023-01-20T15:10:10.015Z,11.28
2023-01-20T15:12:51.999Z,11.14
2023-01-20T15:15:23.043Z,11.05
2023-01-20T15:18:09.543Z,10.93
2023-01-20T15:20:41.331Z,10.83
2023-01-20T15:23:35.783Z,10.79
2023-01-20T15:26:23.819Z,10.69
2023-01-20T15:28:52.509Z,10.59
2023-01-20T15:31:21.307Z,10.47
2023-01-20T15:33:50.557Z,10.30
2023-01-20T15:36:30.149Z,10.16
2023-01-20T15:38:58.735Z,10.05
2023-01-20T15:41:27.231Z,9.94
2023-01-20T15:43:55.709Z,9.73
2023-01-20T15:46:25.113Z,9.44
2023-01-20T15:48:53.497Z,9.18
2023-01-20T15:51:21.681Z,9.03
2023-01-20T15:53:49.856Z,8.87
2023-01-20T15:56:25.523Z,8.69
2023-01-20T15:58:54.504Z,8.58
2023-01-20T16:01:26.816Z,8.52
2023-01-20T16:03:58.230Z,8.43
2023-01-20T16:06:34.439Z,8.34
2023-01-20T16:09:13.520Z,8.28
2023-01-20T16:11:44.873Z,8.23
2023-01-20T16:14:13.153Z,8.18
2023-01-20T16:16:41.336Z,8.11
2023-01-20T16:19:13.615Z,8.14
2023-01-20T16:21:44.432Z,8.25
2023-01-20T16:24:14.161Z,8.27
2023-01-20T16:26:45.962Z,8.23
2023-01-20T16:29:14.315Z,8.21
2023-01-20T16:31:42.657Z,8.15
2023-01-20T16:34:10.871Z,8.04
2023-01-20T16:36:39.260Z,7.92
2023-01-20T16:39:07.439Z,7.93
2023-01-20T16:41:36.901Z,7.88
2023-01-20T16:44:05.848Z,7.85
2023-01-20T16:46:34.739Z,7.80
2023-01-20T16:49:03.877Z,7.78
2023-01-20T16:51:32.941Z,7.70
2023-01-20T16:54:01.119Z,7.63
2023-01-20T16:56:31.960Z,7.63
2023-01-20T16:59:02.159Z,7.60
2023-01-20T17:01:30.820Z,7.59
2023-01-20T17:04:01.732Z,7.49
2023-01-20T17:06:34.043Z,7.35
2023-01-20T17:09:05.628Z,7.23
2023-01-20T17:11:36.707Z,7.14
2023-01-20T17:14:07.684Z,7.09
2023-01-20T17:16:37.301Z,7.09
2023-01-20T17:19:05.973Z,7.13
2023-01-20T17:21:38.641Z,7.20
2023-01-20T17:24:07.775Z,7.26
2023-01-20T17:26:38.061Z,7.32
2023-01-20T17:29:07.366Z,7.39
2023-01-20T17:31:37.125Z,7.46
2023-01-20T17:34:06.965Z,7.49
2023-01-20T17:36:35.230Z,7.51
2023-01-20T17:39:05.511Z,7.56
2023-01-20T17:41:34.634Z,7.57
2023-01-20T17:44:04.470Z,7.56
2023-01-20T17:46:32.931Z,7.48
2023-01-20T17:49:04.827Z,7.46
2023-01-20T17:51:34.686Z,7.42
2023-01-20T17:54:04.089Z,7.41
2023-01-20T17:56:32.991Z,7.43
2023-01-20T17:59:02.402Z,7.41
2023-01-20T18:01:32.897Z,7.38
2023-01-20T18:04:04.456Z,7.38
2023-01-20T18:06:36.482Z,7.29
2023-01-20T18:09:07.397Z,7.21
2023-01-20T18:11:37.474Z,7.06
2023-01-20T18:14:07.157Z,6.96
2023-01-20T18:16:38.447Z,6.86
2023-01-20T18:19:06.971Z,6.83
2023-01-20T18:21:37.473Z,6.86
2023-01-20T18:24:07.664Z,6.83
2023-01-20T18:26:38.757Z,6.71
2023-01-20T18:29:12.404Z,6.52
2023-01-20T18:31:40.942Z,6.35
2023-01-20T18:34:11.917Z,6.24
2023-01-20T18:36:42.039Z,6.21
2023-01-20T18:39:22.816Z,6.22
2023-01-20T18:41:52.205Z,6.23
2023-01-20T18:44:23.462Z,6.25
2023-01-20T18:46:51.947Z,6.22
2023-01-20T18:49:20.231Z,6.18
2023-01-20T18:51:48.519Z,6.19
2023-01-20T18:54:20.993Z,6.21
2023-01-20T18:56:49.476Z,6.30
2023-01-20T18:59:18.177Z,6.44
2023-01-20T19:01:46.557Z,6.58
2023-01-20T19:04:15.450Z,6.74
2023-01-20T19:06:45.499Z,6.85
2023-01-20T19:09:16.311Z,6.94
2023-01-20T19:11:44.795Z,7.05
2023-01-20T19:14:15.099Z,7.16
2023-01-20T19:16:49.173Z,7.25
2023-01-20T19:19:19.387Z,7.31
2023-01-20T19:21:52.069Z,7.28
2023-01-20T19:24:21.987Z,7.29
2023-01-20T19:26:50.351Z,7.30
2023-01-20T19:29:19.858Z,7.28
2023-01-20T19:31:49.396Z,7.23
2023-01-20T19:34:17.857Z,7.19
2023-01-20T19:36:46.246Z,7.16
2023-01-20T19:39:14.629Z,7.13
2023-01-20T19:41:44.041Z,7.04
2023-01-20T19:44:13.775Z,6.99
2023-01-20T19:46:42.215Z,6.95
2023-01-20T19:49:12.305Z,6.90
2023-01-20T19:51:40.642Z,6.82
2023-01-20T19:54:13.211Z,6.78
2023-01-20T19:56:41.815Z,6.73
2023-01-20T19:59:12.557Z,6.75
2023-01-20T20:01:40.820Z,6.68
2023-01-20T20:04:12.852Z,6.66
2023-01-20T20:06:48.085Z,6.61
2023-01-20T20:09:20.336Z,6.63
2023-01-20T20:11:49.622Z,6.70
2023-01-20T20:14:20.056Z,6.77
2023-01-20T20:16:49.203Z,6.84
2023-01-20T20:19:19.470Z,6.92
2023-01-20T20:21:48.260Z,7.01
2023-01-20T20:24:18.306Z,7.08
2023-01-20T20:26:47.442Z,7.14
2023-01-20T20:29:18.685Z,7.19
2023-01-20T20:31:47.457Z,7.22
2023-01-20T20:34:18.712Z,7.22
2023-01-20T20:36:47.211Z,7.22
2023-01-20T20:39:17.823Z,7.24
2023-01-20T20:41:46.836Z,7.26
2023-01-20T20:44:15.291Z,7.28
2023-01-20T20:46:44.280Z,7.28
2023-01-20T20:49:19.220Z,7.30
2023-01-20T20:51:47.837Z,7.30
2023-01-20T20:54:17.314Z,7.31
2023-01-20T20:56:46.116Z,7.30
2023-01-20T20:59:15.482Z,7.27
2023-01-20T21:01:43.664Z,7.20
2023-01-20T21:04:12.513Z,7.09
2023-01-20T21:06:40.988Z,7.03
2023-01-20T21:09:09.647Z,7.00
2023-01-20T21:11:38.643Z,6.99
2023-01-20T21:14:07.678Z,6.97
2023-01-20T21:16:36.054Z,6.94
2023-01-20T21:19:05.424Z,6.91
2023-01-20T21:21:34.669Z,6.89
2023-01-20T21:24:03.155Z,6.87
2023-01-20T21:26:31.644Z,6.87
2023-01-20T21:29:04.060Z,6.85
2023-01-20T21:31:34.668Z,6.86
2023-01-20T21:34:03.819Z,6.89
2023-01-20T21:36:32.471Z,6.89
2023-01-20T21:39:00.833Z,6.88
2023-01-20T21:41:29.826Z,6.88
2023-01-20T21:44:16.834Z,6.86
2023-01-20T21:46:45.768Z,6.86
2023-01-20T21:49:32.663Z,6.88
2023-01-20T21:52:19.546Z,6.87
2023-01-20T21:54:48.028Z,6.91
2023-01-20T21:57:16.529Z,6.95
2023-01-20T21:59:46.141Z,6.98
2023-01-20T22:02:15.317Z,7.03
2023-01-20T22:04:44.128Z,7.10
2023-01-20T22:07:13.635Z,7.13
2023-01-20T22:09:42.229Z,7.15
2023-01-20T22:12:11.388Z,7.14
2023-01-20T22:14:39.815Z,7.16
2023-01-20T22:17:09.945Z,7.22
2023-01-20T22:19:38.813Z,7.27
2023-01-20T22:22:07.890Z,7.30
2023-01-20T22:24:36.951Z,7.33
2023-01-20T22:27:05.528Z,7.35
2023-01-20T22:29:33.902Z,7.40
2023-01-20T22:32:04.235Z,7.45
2023-01-20T22:34:32.416Z,7.51
2023-01-20T22:37:01.012Z,7.50
2023-01-20T22:39:29.491Z,7.56
2023-01-20T22:41:57.683Z,7.64
2023-01-20T22:44:26.160Z,7.74
2023-01-20T22:46:54.945Z,7.83
2023-01-20T22:49:23.345Z,7.88
2023-01-20T22:51:54.430Z,7.91
2023-01-20T22:54:22.773Z,7.93
2023-01-20T22:56:51.246Z,7.92
2023-01-20T22:59:19.634Z,7.94
2023-01-20T23:01:48.016Z,7.92
2023-01-20T23:04:16.505Z,7.92
2023-01-20T23:06:45.398Z,7.92
2023-01-20T23:09:14.741Z,7.91
2023-01-20T23:11:43.201Z,7.88
2023-01-20T23:14:13.711Z,7.82
2023-01-20T23:16:43.416Z,7.77
2023-01-20T23:19:11.933Z,7.73
2023-01-20T23:21:40.940Z,7.70
2023-01-20T23:24:10.331Z,7.67
2023-01-20T23:26:38.918Z,7.64
2023-01-20T23:29:07.465Z,7.61
2023-01-20T23:31:35.931Z,7.58
2023-01-20T23:34:04.585Z,7.52
2023-01-20T23:36:33.181Z,7.50
2023-01-20T23:39:01.579Z,7.49
2023-01-20T23:41:29.946Z,7.50
2023-01-20T23:43:58.437Z,7.53
2023-01-20T23:46:26.918Z,7.58
2023-01-20T23:48:55.514Z,7.62
2023-01-20T23:51:23.969Z,7.63
2023-01-20T23:53:52.383Z,7.65
2023-01-20T23:56:22.711Z,7.68
2023-01-20T23:58:52.337Z,7.72
